sensor_id;sensor_type;location;lat;lon;timestamp;pressure;altitude;pressure_sealevel;temperature;humidity
40864;BME280;26582;47.524;19.012;2023-12-20T00:00:41;99046.94;;;2.23;83.31
40864;BME280;26582;47.524;19.012;2023-12-20T00:03:08;99038.50;;;2.18;82.91
40864;BME280;26582;47.524;19.012;2023-12-20T00:05:34;99037.66;;;2.18;83.05
40864;BME280;26582;47.524;19.012;2023-12-20T00:08:04;99044.50;;;2.20;82.90
40864;BME280;26582;47.524;19.012;2023-12-20T00:10:31;99030.88;;;2.14;83.34
40864;BME280;26582;47.524;19.012;2023-12-20T00:12:57;99023.66;;;2.17;82.86
40864;BME280;26582;47.524;19.012;2023-12-20T00:15:24;99025.34;;;2.04;83.85
40864;BME280;26582;47.524;19.012;2023-12-20T00:17:52;99014.94;;;2.17;83.17
40864;BME280;26582;47.524;19.012;2023-12-20T00:20:19;99008.28;;;2.11;83.56
40864;BME280;26582;47.524;19.012;2023-12-20T00:22:45;99007.34;;;2.12;83.12
40864;BME280;26582;47.524;19.012;2023-12-20T00:25:12;99006.97;;;2.18;82.66
40864;BME280;26582;47.524;19.012;2023-12-20T00:27:39;99007.22;;;2.14;82.41
40864;BME280;26582;47.524;19.012;2023-12-20T00:30:07;98997.19;;;2.06;82.59
40864;BME280;26582;47.524;19.012;2023-12-20T00:32:34;99002.09;;;2.12;82.17
40864;BME280;26582;47.524;19.012;2023-12-20T00:35:03;98995.59;;;2.03;82.22
40864;BME280;26582;47.524;19.012;2023-12-20T00:37:30;98992.97;;;2.03;82.08
40864;BME280;26582;47.524;19.012;2023-12-20T00:39:56;98989.50;;;1.89;83.36
40864;BME280;26582;47.524;19.012;2023-12-20T00:42:23;98979.47;;;1.95;82.53
40864;BME280;26582;47.524;19.012;2023-12-20T00:44:50;98978.56;;;1.80;83.09
40864;BME280;26582;47.524;19.012;2023-12-20T00:47:17;98968.81;;;1.82;84.67
40864;BME280;26582;47.524;19.012;2023-12-20T00:49:43;98962.38;;;1.88;83.55
40864;BME280;26582;47.524;19.012;2023-12-20T00:52:11;98953.38;;;1.92;84.82
40864;BME280;26582;47.524;19.012;2023-12-20T00:54:38;98953.00;;;1.98;84.03
40864;BME280;26582;47.524;19.012;2023-12-20T00:57:04;98957.50;;;1.96;83.69
40864;BME280;26582;47.524;19.012;2023-12-20T00:59:31;98955.34;;;2.03;83.17
40864;BME280;26582;47.524;19.012;2023-12-20T01:01:58;98957.06;;;2.04;82.89
40864;BME280;26582;47.524;19.012;2023-12-20T01:04:25;98948.31;;;2.03;82.69
40864;BME280;26582;47.524;19.012;2023-12-20T01:06:51;98913.88;;;1.79;82.49
40864;BME280;26582;47.524;19.012;2023-12-20T01:09:20;98945.50;;;2.06;82.07
40864;BME280;26582;47.524;19.012;2023-12-20T01:11:48;98939.59;;;2.03;81.67
40864;BME280;26582;47.524;19.012;2023-12-20T01:14:15;98936.53;;;2.11;81.07
40864;BME280;26582;47.524;19.012;2023-12-20T01:16:42;98942.78;;;2.08;80.63
40864;BME280;26582;47.524;19.012;2023-12-20T01:19:08;98935.00;;;2.06;81.17
40864;BME280;26582;47.524;19.012;2023-12-20T01:21:35;98934.34;;;2.03;81.04
40864;BME280;26582;47.524;19.012;2023-12-20T01:24:02;98936.53;;;2.11;80.60
40864;BME280;26582;47.524;19.012;2023-12-20T01:26:30;98929.00;;;2.04;80.17
40864;BME280;26582;47.524;19.012;2023-12-20T01:28:57;98925.56;;;2.04;80.41
40864;BME280;26582;47.524;19.012;2023-12-20T01:31:23;98923.56;;;2.07;80.40
40864;BME280;26582;47.524;19.012;2023-12-20T01:33:52;98904.88;;;1.98;80.23
40864;BME280;26582;47.524;19.012;2023-12-20T01:36:19;98909.97;;;2.01;80.08
40864;BME280;26582;47.524;19.012;2023-12-20T01:38:46;98882.28;;;1.81;79.93
40864;BME280;26582;47.524;19.012;2023-12-20T01:41:12;98912.69;;;1.99;80.08
40864;BME280;26582;47.524;19.012;2023-12-20T01:43:40;98897.78;;;2.00;80.01
40864;BME280;26582;47.524;19.012;2023-12-20T01:46:07;98896.28;;;1.96;80.34
40864;BME280;26582;47.524;19.012;2023-12-20T01:48:34;98895.53;;;1.94;80.67
40864;BME280;26582;47.524;19.012;2023-12-20T01:51:02;98886.88;;;1.92;81.13
40864;BME280;26582;47.524;19.012;2023-12-20T01:53:29;98884.25;;;1.92;80.86
40864;BME280;26582;47.524;19.012;2023-12-20T01:55:58;98878.25;;;1.90;80.96
40864;BME280;26582;47.524;19.012;2023-12-20T01:58:25;98876.38;;;1.92;80.96
40864;BME280;26582;47.524;19.012;2023-12-20T02:00:54;98874.69;;;1.91;80.22
40864;BME280;26582;47.524;19.012;2023-12-20T02:03:21;98866.81;;;1.91;80.68
40864;BME280;26582;47.524;19.012;2023-12-20T02:05:48;98858.84;;;1.92;80.40
40864;BME280;26582;47.524;19.012;2023-12-20T02:08:15;98849.84;;;1.96;79.86
40864;BME280;26582;47.524;19.012;2023-12-20T02:10:41;98844.41;;;1.99;79.73
40864;BME280;26582;47.524;19.012;2023-12-20T02:13:08;98842.06;;;1.95;79.40
40864;BME280;26582;47.524;19.012;2023-12-20T02:15:35;98834.75;;;1.86;79.44
40864;BME280;26582;47.524;19.012;2023-12-20T02:18:04;98836.72;;;1.82;80.26
40864;BME280;26582;47.524;19.012;2023-12-20T02:20:31;98826.22;;;1.82;79.67
40864;BME280;26582;47.524;19.012;2023-12-20T02:22:59;98825.19;;;1.85;79.39
40864;BME280;26582;47.524;19.012;2023-12-20T02:25:26;98818.81;;;1.89;79.79
40864;BME280;26582;47.524;19.012;2023-12-20T02:27:52;98817.88;;;1.90;79.84
40864;BME280;26582;47.524;19.012;2023-12-20T02:30:19;98816.75;;;1.79;79.62
40864;BME280;26582;47.524;19.012;2023-12-20T02:32:46;98815.53;;;1.85;79.14
40864;BME280;26582;47.524;19.012;2023-12-20T02:35:13;98786.03;;;1.67;78.89
40864;BME280;26582;47.524;19.012;2023-12-20T02:37:39;98813.63;;;1.87;79.02
40864;BME280;26582;47.524;19.012;2023-12-20T02:40:08;98802.78;;;1.79;78.22
40864;BME280;26582;47.524;19.012;2023-12-20T02:42:35;98807.28;;;1.77;78.91
40864;BME280;26582;47.524;19.012;2023-12-20T02:45:02;98784.78;;;1.73;78.30
40864;BME280;26582;47.524;19.012;2023-12-20T02:47:29;98792.56;;;1.74;79.20
40864;BME280;26582;47.524;19.012;2023-12-20T02:49:56;98790.03;;;1.73;78.99
40864;BME280;26582;47.524;19.012;2023-12-20T02:52:23;98790.59;;;1.78;78.49
40864;BME280;26582;47.524;19.012;2023-12-20T02:54:50;98786.38;;;1.75;78.16
40864;BME280;26582;47.524;19.012;2023-12-20T02:57:18;98781.69;;;1.80;78.64
40864;BME280;26582;47.524;19.012;2023-12-20T02:59:44;98782.25;;;1.86;78.08
40864;BME280;26582;47.524;19.012;2023-12-20T03:02:11;98782.81;;;1.91;78.37
40864;BME280;26582;47.524;19.012;2023-12-20T03:04:38;98782.81;;;1.91;77.94
40864;BME280;26582;47.524;19.012;2023-12-20T03:07:04;98782.13;;;1.87;78.50
40864;BME280;26582;47.524;19.012;2023-12-20T03:09:31;98771.47;;;1.90;78.11
40864;BME280;26582;47.524;19.012;2023-12-20T03:11:58;98767.63;;;1.81;78.24
40864;BME280;26582;47.524;19.012;2023-12-20T03:14:26;98777.09;;;1.84;78.45
40864;BME280;26582;47.524;19.012;2023-12-20T03:16:52;98779.16;;;1.79;78.76
40864;BME280;26582;47.524;19.012;2023-12-20T03:19:19;98784.31;;;1.80;78.34
40864;BME280;26582;47.524;19.012;2023-12-20T03:21:46;98785.25;;;1.79;78.28
40864;BME280;26582;47.524;19.012;2023-12-20T03:24:13;98790.50;;;1.79;77.92
40864;BME280;26582;47.524;19.012;2023-12-20T03:26:39;98792.19;;;1.80;78.00
40864;BME280;26582;47.524;19.012;2023-12-20T03:29:06;98794.06;;;1.78;78.80
40864;BME280;26582;47.524;19.012;2023-12-20T03:31:34;98788.25;;;1.73;78.67
40864;BME280;26582;47.524;19.012;2023-12-20T03:34:00;98789.00;;;1.75;78.38
40864;BME280;26582;47.524;19.012;2023-12-20T03:36:27;98795.66;;;1.67;78.90
40864;BME280;26582;47.524;19.012;2023-12-20T03:38:54;98789.38;;;1.69;78.87
40864;BME280;26582;47.524;19.012;2023-12-20T03:41:20;98783.56;;;1.78;78.72
40864;BME280;26582;47.524;19.012;2023-12-20T03:43:47;98779.22;;;1.77;78.23
40864;BME280;26582;47.524;19.012;2023-12-20T03:46:14;98778.41;;;1.77;77.86
40864;BME280;26582;47.524;19.012;2023-12-20T03:48:42;98780.00;;;1.79;77.80
40864;BME280;26582;47.524;19.012;2023-12-20T03:51:08;98785.34;;;1.78;77.54
40864;BME280;26582;47.524;19.012;2023-12-20T03:53:35;98780.09;;;1.78;77.15
40864;BME280;26582;47.524;19.012;2023-12-20T03:56:02;98771.84;;;1.55;78.30
40864;BME280;26582;47.524;19.012;2023-12-20T03:58:29;98780.28;;;1.61;78.28
40864;BME280;26582;47.524;19.012;2023-12-20T04:00:55;98774.75;;;1.65;77.91
40864;BME280;26582;47.524;19.012;2023-12-20T04:03:22;98773.63;;;1.69;78.13
40864;BME280;26582;47.524;19.012;2023-12-20T04:05:50;98768.28;;;1.71;77.39
40864;BME280;26582;47.524;19.012;2023-12-20T04:08:17;98759.28;;;1.61;77.45
40864;BME280;26582;47.524;19.012;2023-12-20T04:10:43;98772.13;;;1.65;77.36
40864;BME280;26582;47.524;19.012;2023-12-20T04:13:10;98765.59;;;1.72;77.15
40864;BME280;26582;47.524;19.012;2023-12-20T04:15:37;98756.19;;;1.68;76.90
40864;BME280;26582;47.524;19.012;2023-12-20T04:18:04;98762.47;;;1.66;76.77
40864;BME280;26582;47.524;19.012;2023-12-20T04:20:30;98766.69;;;1.68;76.99
40864;BME280;26582;47.524;19.012;2023-12-20T04:22:59;98764.16;;;1.67;77.22
40864;BME280;26582;47.524;19.012;2023-12-20T04:25:25;98751.69;;;1.70;77.16
40864;BME280;26582;47.524;19.012;2023-12-20T04:27:52;98744.03;;;1.67;77.23
40864;BME280;26582;47.524;19.012;2023-12-20T04:30:18;98724.31;;;1.60;77.17
40864;BME280;26582;47.524;19.012;2023-12-20T04:32:45;98742.31;;;1.66;76.74
40864;BME280;26582;47.524;19.012;2023-12-20T04:35:12;98734.81;;;1.74;76.48
40864;BME280;26582;47.524;19.012;2023-12-20T04:37:38;98734.09;;;1.72;76.85
40864;BME280;26582;47.524;19.012;2023-12-20T04:40:07;98728.19;;;1.69;76.63
40864;BME280;26582;47.524;19.012;2023-12-20T04:42:34;98719.63;;;1.65;76.33
40864;BME280;26582;47.524;19.012;2023-12-20T04:45:01;98717.97;;;1.50;77.18
40864;BME280;26582;47.524;19.012;2023-12-20T04:47:28;98700.25;;;1.25;77.84
40864;BME280;26582;47.524;19.012;2023-12-20T04:49:55;98680.13;;;0.97;78.58
40864;BME280;26582;47.524;19.012;2023-12-20T04:52:21;98690.50;;;0.98;80.81
40864;BME280;26582;47.524;19.012;2023-12-20T04:54:48;98696.97;;;1.07;80.40
40864;BME280;26582;47.524;19.012;2023-12-20T04:57:16;98697.06;;;1.20;79.29
40864;BME280;26582;47.524;19.012;2023-12-20T04:59:43;98683.78;;;1.09;79.19
40864;BME280;26582;47.524;19.012;2023-12-20T05:02:10;98691.91;;;1.04;80.35
40864;BME280;26582;47.524;19.012;2023-12-20T05:04:37;98688.72;;;0.99;79.90
40864;BME280;26582;47.524;19.012;2023-12-20T05:07:03;98682.28;;;1.19;79.56
40864;BME280;26582;47.524;19.012;2023-12-20T05:09:31;98675.75;;;1.26;79.22
40864;BME280;26582;47.524;19.012;2023-12-20T05:11:58;98667.88;;;1.26;78.81
40864;BME280;26582;47.524;19.012;2023-12-20T05:14:25;98671.78;;;1.19;80.10
40864;BME280;26582;47.524;19.012;2023-12-20T05:16:52;98673.41;;;1.21;79.02
40864;BME280;26582;47.524;19.012;2023-12-20T05:19:19;98663.09;;;1.18;79.12
40864;BME280;26582;47.524;19.012;2023-12-20T05:21:45;98668.72;;;1.26;78.46
40864;BME280;26582;47.524;19.012;2023-12-20T05:24:12;98654.16;;;1.35;77.73
40864;BME280;26582;47.524;19.012;2023-12-20T05:26:38;98668.59;;;1.42;77.77
40864;BME280;26582;47.524;19.012;2023-12-20T05:29:05;98687.25;;;1.23;77.89
40864;BME280;26582;47.524;19.012;2023-12-20T05:31:33;98693.81;;;1.30;77.84
40864;BME280;26582;47.524;19.012;2023-12-20T05:34:00;98682.75;;;0.97;78.32
40864;BME280;26582;47.524;19.012;2023-12-20T05:36:26;98687.44;;;0.62;80.56
40864;BME280;26582;47.524;19.012;2023-12-20T05:38:53;98673.97;;;0.68;80.21
40864;BME280;26582;47.524;19.012;2023-12-20T05:41:20;98673.72;;;0.58;79.27
40864;BME280;26582;47.524;19.012;2023-12-20T05:43:48;98664.63;;;0.04;81.39
40864;BME280;26582;47.524;19.012;2023-12-20T05:46:14;98663.72;;;-0.43;83.86
40864;BME280;26582;47.524;19.012;2023-12-20T05:48:42;98659.03;;;-0.20;84.54
40864;BME280;26582;47.524;19.012;2023-12-20T05:51:11;98646.84;;;-0.37;84.29
40864;BME280;26582;47.524;19.012;2023-12-20T05:53:38;98646.94;;;-0.39;84.56
40864;BME280;26582;47.524;19.012;2023-12-20T05:56:05;98643.91;;;-0.15;84.21
40864;BME280;26582;47.524;19.012;2023-12-20T05:58:32;98643.97;;;-0.33;83.70
40864;BME280;26582;47.524;19.012;2023-12-20T06:00:58;98639.09;;;-0.55;86.34
40864;BME280;26582;47.524;19.012;2023-12-20T06:03:25;98645.06;;;-0.53;86.82
40864;BME280;26582;47.524;19.012;2023-12-20T06:05:53;98649.31;;;-0.66;86.65
40864;BME280;26582;47.524;19.012;2023-12-20T06:08:20;98644.91;;;-0.65;87.30
40864;BME280;26582;47.524;19.012;2023-12-20T06:10:46;98636.25;;;-0.50;89.02
40864;BME280;26582;47.524;19.012;2023-12-20T06:13:13;98631.16;;;-0.21;87.59
40864;BME280;26582;47.524;19.012;2023-12-20T06:15:40;98638.56;;;-0.14;87.56
40864;BME280;26582;47.524;19.012;2023-12-20T06:18:06;98636.53;;;-0.09;88.07
40864;BME280;26582;47.524;19.012;2023-12-20T06:20:33;98636.88;;;0.01;88.01
40864;BME280;26582;47.524;19.012;2023-12-20T06:23:01;98606.91;;;-0.09;87.26
40864;BME280;26582;47.524;19.012;2023-12-20T06:25:28;98636.94;;;0.30;87.18
40864;BME280;26582;47.524;19.012;2023-12-20T06:27:54;98608.44;;;-0.05;88.61
40864;BME280;26582;47.524;19.012;2023-12-20T06:30:21;98637.25;;;0.09;88.73
40864;BME280;26582;47.524;19.012;2023-12-20T06:32:48;98643.84;;;0.16;88.93
40864;BME280;26582;47.524;19.012;2023-12-20T06:35:15;98651.50;;;0.19;89.57
40864;BME280;26582;47.524;19.012;2023-12-20T06:37:41;98656.63;;;0.37;87.29
40864;BME280;26582;47.524;19.012;2023-12-20T06:40:11;98671.31;;;0.39;88.40
40864;BME280;26582;47.524;19.012;2023-12-20T06:42:38;98671.97;;;0.43;87.94
40864;BME280;26582;47.524;19.012;2023-12-20T06:45:05;98692.63;;;0.63;86.92
40864;BME280;26582;47.524;19.012;2023-12-20T06:47:31;98696.03;;;0.80;85.94
40864;BME280;26582;47.524;19.012;2023-12-20T06:49:58;98692.19;;;0.85;84.96
40864;BME280;26582;47.524;19.012;2023-12-20T06:52:26;98666.31;;;0.65;84.78
40864;BME280;26582;47.524;19.012;2023-12-20T06:54:52;98689.66;;;0.98;84.14
40864;BME280;26582;47.524;19.012;2023-12-20T06:57:20;98691.38;;;1.13;83.41
40864;BME280;26582;47.524;19.012;2023-12-20T06:59:47;98695.22;;;1.22;83.24
40864;BME280;26582;47.524;19.012;2023-12-20T07:02:14;98698.66;;;1.08;82.23
40864;BME280;26582;47.524;19.012;2023-12-20T07:04:41;98694.94;;;1.26;81.80
40864;BME280;26582;47.524;19.012;2023-12-20T07:07:08;98692.22;;;1.28;82.08
40864;BME280;26582;47.524;19.012;2023-12-20T07:09:34;98684.06;;;1.33;80.88
40864;BME280;26582;47.524;19.012;2023-12-20T07:12:03;98675.97;;;1.36;80.53
40864;BME280;26582;47.524;19.012;2023-12-20T07:14:31;98675.97;;;1.36;80.90
40864;BME280;26582;47.524;19.012;2023-12-20T07:16:58;98666.09;;;1.26;81.01
40864;BME280;26582;47.524;19.012;2023-12-20T07:19:24;98672.28;;;1.25;80.97
40864;BME280;26582;47.524;19.012;2023-12-20T07:21:51;98672.91;;;1.29;80.77
40864;BME280;26582;47.524;19.012;2023-12-20T07:24:18;98670.84;;;1.34;80.54
40864;BME280;26582;47.524;19.012;2023-12-20T07:26:45;98676.66;;;1.39;80.79
40864;BME280;26582;47.524;19.012;2023-12-20T07:29:12;98674.78;;;1.41;80.89
40864;BME280;26582;47.524;19.012;2023-12-20T07:31:40;98672.28;;;1.11;81.17
40864;BME280;26582;47.524;19.012;2023-12-20T07:34:07;98680.16;;;1.25;81.97
40864;BME280;26582;47.524;19.012;2023-12-20T07:36:33;98686.97;;;1.28;81.91
40864;BME280;26582;47.524;19.012;2023-12-20T07:39:00;98690.03;;;1.35;81.35
40864;BME280;26582;47.524;19.012;2023-12-20T07:41:26;98679.38;;;1.23;80.88
40864;BME280;26582;47.524;19.012;2023-12-20T07:43:53;98682.34;;;1.46;80.24
40864;BME280;26582;47.524;19.012;2023-12-20T07:46:21;98684.34;;;1.42;80.91
40864;BME280;26582;47.524;19.012;2023-12-20T07:48:50;98684.25;;;1.44;81.50
40864;BME280;26582;47.524;19.012;2023-12-20T07:51:17;98674.75;;;1.55;81.28
40864;BME280;26582;47.524;19.012;2023-12-20T07:53:43;98676.47;;;1.42;81.70
40864;BME280;26582;47.524;19.012;2023-12-20T07:56:14;98666.69;;;1.59;82.65
40864;BME280;26582;47.524;19.012;2023-12-20T07:58:41;98672.28;;;1.11;83.02
40864;BME280;26582;47.524;19.012;2023-12-20T08:01:08;98664.47;;;0.81;86.24
40864;BME280;26582;47.524;19.012;2023-12-20T08:03:35;98663.06;;;0.75;87.86
40864;BME280;26582;47.524;19.012;2023-12-20T08:06:03;98646.41;;;0.91;86.02
40864;BME280;26582;47.524;19.012;2023-12-20T08:08:30;98635.38;;;0.86;85.84
40864;BME280;26582;47.524;19.012;2023-12-20T08:10:57;98664.47;;;1.24;84.08
40864;BME280;26582;47.524;19.012;2023-12-20T08:13:25;98655.78;;;1.38;83.29
40864;BME280;26582;47.524;19.012;2023-12-20T08:15:53;98642.38;;;1.42;83.00
40864;BME280;26582;47.524;19.012;2023-12-20T08:18:19;98641.28;;;1.59;81.85
40864;BME280;26582;47.524;19.012;2023-12-20T08:20:46;98652.25;;;1.66;82.04
40864;BME280;26582;47.524;19.012;2023-12-20T08:23:15;98644.88;;;1.44;82.42
40864;BME280;26582;47.524;19.012;2023-12-20T08:25:41;98658.56;;;1.49;83.21
40864;BME280;26582;47.524;19.012;2023-12-20T08:28:08;98652.81;;;1.56;83.49
40864;BME280;26582;47.524;19.012;2023-12-20T08:30:35;98653.56;;;1.73;81.83
40864;BME280;26582;47.524;19.012;2023-12-20T08:33:02;98660.72;;;1.42;81.45
40864;BME280;26582;47.524;19.012;2023-12-20T08:35:28;98668.16;;;1.21;81.37
40864;BME280;26582;47.524;19.012;2023-12-20T08:37:56;98661.97;;;1.08;83.36
40864;BME280;26582;47.524;19.012;2023-12-20T08:40:24;98662.53;;;1.27;84.06
40864;BME280;26582;47.524;19.012;2023-12-20T08:42:51;98658.38;;;1.38;84.77
40864;BME280;26582;47.524;19.012;2023-12-20T08:45:17;98669.59;;;1.54;84.77
40864;BME280;26582;47.524;19.012;2023-12-20T08:47:44;98668.88;;;1.23;84.27
40864;BME280;26582;47.524;19.012;2023-12-20T08:50:11;98658.16;;;1.69;83.78
40864;BME280;26582;47.524;19.012;2023-12-20T08:52:37;98665.00;;;1.99;82.89
40864;BME280;26582;47.524;19.012;2023-12-20T08:55:05;98657.53;;;2.32;81.73
40864;BME280;26582;47.524;19.012;2023-12-20T08:57:33;98661.34;;;2.41;81.24
40864;BME280;26582;47.524;19.012;2023-12-20T09:00:00;98654.25;;;2.16;81.58
40864;BME280;26582;47.524;19.012;2023-12-20T09:02:27;98663.75;;;2.44;82.94
40864;BME280;26582;47.524;19.012;2023-12-20T09:04:54;98664.53;;;2.59;81.60
40864;BME280;26582;47.524;19.012;2023-12-20T09:07:21;98650.66;;;2.57;81.69
40864;BME280;26582;47.524;19.012;2023-12-20T09:09:48;98667.63;;;2.78;80.61
40864;BME280;26582;47.524;19.012;2023-12-20T09:12:15;98662.44;;;2.64;79.08
40864;BME280;26582;47.524;19.012;2023-12-20T09:14:43;98662.78;;;2.72;79.80
40864;BME280;26582;47.524;19.012;2023-12-20T09:17:10;98657.19;;;2.90;80.08
40864;BME280;26582;47.524;19.012;2023-12-20T09:19:37;98644.59;;;2.95;78.61
40864;BME280;26582;47.524;19.012;2023-12-20T09:22:04;98646.78;;;3.01;78.77
40864;BME280;26582;47.524;19.012;2023-12-20T09:24:31;98647.13;;;3.09;78.39
40864;BME280;26582;47.524;19.012;2023-12-20T09:26:58;98650.16;;;3.16;78.70
40864;BME280;26582;47.524;19.012;2023-12-20T09:29:24;98634.56;;;3.25;78.55
40864;BME280;26582;47.524;19.012;2023-12-20T09:31:52;98627.31;;;3.16;77.54
40864;BME280;26582;47.524;19.012;2023-12-20T09:34:19;98632.16;;;2.97;78.60
40864;BME280;26582;47.524;19.012;2023-12-20T09:36:46;98624.69;;;3.03;78.34
40864;BME280;26582;47.524;19.012;2023-12-20T09:39:13;98622.38;;;3.11;78.85
40864;BME280;26582;47.524;19.012;2023-12-20T09:41:43;98619.06;;;3.33;77.97
40864;BME280;26582;47.524;19.012;2023-12-20T09:44:14;98615.38;;;3.36;77.27
40864;BME280;26582;47.524;19.012;2023-12-20T09:46:49;98612.53;;;3.39;77.80
40864;BME280;26582;47.524;19.012;2023-12-20T09:49:18;98608.59;;;2.95;79.46
40864;BME280;26582;47.524;19.012;2023-12-20T09:51:46;98601.44;;;3.10;80.61
40864;BME280;26582;47.524;19.012;2023-12-20T09:54:13;98597.66;;;3.14;82.27
40864;BME280;26582;47.524;19.012;2023-12-20T09:56:40;98596.00;;;3.37;82.17
40864;BME280;26582;47.524;19.012;2023-12-20T09:59:07;98588.38;;;3.21;84.03
40864;BME280;26582;47.524;19.012;2023-12-20T10:01:34;98606.84;;;3.32;85.32
40864;BME280;26582;47.524;19.012;2023-12-20T10:04:00;98589.34;;;3.44;84.45
40864;BME280;26582;47.524;19.012;2023-12-20T10:06:33;98586.00;;;3.42;84.74
40864;BME280;26582;47.524;19.012;2023-12-20T10:09:01;98584.06;;;3.07;83.56
40864;BME280;26582;47.524;19.012;2023-12-20T10:11:27;98586.13;;;3.28;84.59
40864;BME280;26582;47.524;19.012;2023-12-20T10:13:59;98575.72;;;3.26;91.50
40864;BME280;26582;47.524;19.012;2023-12-20T10:16:26;98579.81;;;3.67;91.82
40864;BME280;26582;47.524;19.012;2023-12-20T10:18:53;98579.22;;;3.99;89.56
40864;BME280;26582;47.524;19.012;2023-12-20T10:21:20;98581.81;;;4.23;91.15
40864;BME280;26582;47.524;19.012;2023-12-20T10:23:48;98568.88;;;4.55;89.80
40864;BME280;26582;47.524;19.012;2023-12-20T10:26:19;98551.03;;;4.92;90.00
40864;BME280;26582;47.524;19.012;2023-12-20T10:28:45;98540.81;;;5.10;90.45
40864;BME280;26582;47.524;19.012;2023-12-20T10:31:26;98522.09;;;5.24;87.66
40864;BME280;26582;47.524;19.012;2023-12-20T10:33:52;98532.59;;;5.46;88.51
40864;BME280;26582;47.524;19.012;2023-12-20T10:36:19;98525.94;;;5.63;87.58
40864;BME280;26582;47.524;19.012;2023-12-20T10:38:50;98501.28;;;5.74;84.76
40864;BME280;26582;47.524;19.012;2023-12-20T10:41:21;98514.53;;;6.06;83.75
40864;BME280;26582;47.524;19.012;2023-12-20T10:43:51;98508.34;;;6.17;82.30
40864;BME280;26582;47.524;19.012;2023-12-20T10:46:19;98501.09;;;6.19;83.44
40864;BME280;26582;47.524;19.012;2023-12-20T10:48:45;98505.47;;;6.50;81.66
40864;BME280;26582;47.524;19.012;2023-12-20T10:51:13;98498.91;;;6.45;80.60
40864;BME280;26582;47.524;19.012;2023-12-20T10:53:44;98494.25;;;6.58;82.14
40864;BME280;26582;47.524;19.012;2023-12-20T10:56:16;98503.97;;;6.88;79.62
40864;BME280;26582;47.524;19.012;2023-12-20T10:58:43;98492.94;;;6.83;80.51
40864;BME280;26582;47.524;19.012;2023-12-20T11:01:12;98493.34;;;6.78;79.90
40864;BME280;26582;47.524;19.012;2023-12-20T11:03:43;98515.28;;;6.90;76.94
40864;BME280;26582;47.524;19.012;2023-12-20T11:06:15;98500.53;;;6.97;80.50
40864;BME280;26582;47.524;19.012;2023-12-20T11:08:49;98512.41;;;7.13;78.59
40864;BME280;26582;47.524;19.012;2023-12-20T11:11:25;98501.81;;;7.13;77.41
40864;BME280;26582;47.524;19.012;2023-12-20T11:13:55;98488.63;;;7.32;78.45
40864;BME280;26582;47.524;19.012;2023-12-20T11:16:23;98482.50;;;7.51;76.88
40864;BME280;26582;47.524;19.012;2023-12-20T11:18:50;98455.03;;;7.32;75.76
40864;BME280;26582;47.524;19.012;2023-12-20T11:21:17;98466.59;;;7.41;73.76
40864;BME280;26582;47.524;19.012;2023-12-20T11:23:45;98467.47;;;7.71;73.72
40864;BME280;26582;47.524;19.012;2023-12-20T11:26:15;98460.63;;;7.97;72.85
40864;BME280;26582;47.524;19.012;2023-12-20T11:28:44;98464.66;;;7.92;75.43
40864;BME280;26582;47.524;19.012;2023-12-20T11:31:13;98448.31;;;8.16;72.71
40864;BME280;26582;47.524;19.012;2023-12-20T11:33:40;98433.91;;;8.28;72.28
40864;BME280;26582;47.524;19.012;2023-12-20T11:36:13;98448.34;;;8.06;71.27
40864;BME280;26582;47.524;19.012;2023-12-20T11:38:54;98442.53;;;8.30;71.09
40864;BME280;26582;47.524;19.012;2023-12-20T11:41:22;98456.28;;;8.16;71.73
40864;BME280;26582;47.524;19.012;2023-12-20T11:43:52;98459.44;;;8.48;70.81
40864;BME280;26582;47.524;19.012;2023-12-20T11:46:20;98457.56;;;8.58;69.76
40864;BME280;26582;47.524;19.012;2023-12-20T11:48:48;98440.00;;;8.57;69.63
40864;BME280;26582;47.524;19.012;2023-12-20T11:51:14;98437.03;;;8.60;69.63
40864;BME280;26582;47.524;19.012;2023-12-20T11:53:41;98452.25;;;8.68;69.68
40864;BME280;26582;47.524;19.012;2023-12-20T11:56:09;98449.16;;;8.73;69.45
40864;BME280;26582;47.524;19.012;2023-12-20T11:58:36;98445.78;;;8.71;69.49
40864;BME280;26582;47.524;19.012;2023-12-20T12:01:05;98441.28;;;8.81;68.94
40864;BME280;26582;47.524;19.012;2023-12-20T12:03:32;98428.28;;;9.05;68.76
40864;BME280;26582;47.524;19.012;2023-12-20T12:05:59;98427.34;;;8.97;67.55
40864;BME280;26582;47.524;19.012;2023-12-20T12:08:26;98431.09;;;9.04;66.47
40864;BME280;26582;47.524;19.012;2023-12-20T12:10:53;98430.53;;;8.82;67.65
40864;BME280;26582;47.524;19.012;2023-12-20T12:13:20;98422.59;;;8.73;67.22
40864;BME280;26582;47.524;19.012;2023-12-20T12:15:47;98428.41;;;8.49;67.63
40864;BME280;26582;47.524;19.012;2023-12-20T12:18:17;98416.16;;;8.38;67.71
40864;BME280;26582;47.524;19.012;2023-12-20T12:20:44;98405.88;;;8.16;68.48
40864;BME280;26582;47.524;19.012;2023-12-20T12:23:11;98418.59;;;8.02;68.33
40864;BME280;26582;47.524;19.012;2023-12-20T12:25:38;98447.91;;;8.10;69.38
40864;BME280;26582;47.524;19.012;2023-12-20T12:28:05;98448.91;;;7.71;70.53
40864;BME280;26582;47.524;19.012;2023-12-20T12:30:32;98435.25;;;7.66;70.75
40864;BME280;26582;47.524;19.012;2023-12-20T12:32:59;98440.97;;;7.32;71.09
40864;BME280;26582;47.524;19.012;2023-12-20T12:35:27;98438.19;;;7.43;71.68
40864;BME280;26582;47.524;19.012;2023-12-20T12:37:53;98428.25;;;7.36;71.83
40864;BME280;26582;47.524;19.012;2023-12-20T12:40:20;98437.03;;;7.17;72.43
40864;BME280;26582;47.524;19.012;2023-12-20T12:42:47;98424.34;;;7.20;72.30
40864;BME280;26582;47.524;19.012;2023-12-20T12:45:13;98424.75;;;7.06;72.82
40864;BME280;26582;47.524;19.012;2023-12-20T12:47:41;98424.13;;;6.83;72.99
40864;BME280;26582;47.524;19.012;2023-12-20T12:50:08;98427.53;;;6.54;74.82
40864;BME280;26582;47.524;19.012;2023-12-20T12:52:36;98436.03;;;6.58;74.48
40864;BME280;26582;47.524;19.012;2023-12-20T12:55:04;98423.53;;;6.70;75.04
40864;BME280;26582;47.524;19.012;2023-12-20T12:57:32;98443.75;;;6.40;75.78
40864;BME280;26582;47.524;19.012;2023-12-20T12:59:59;98429.59;;;6.51;74.95